Time;durP1;ratioP1;P1;durP2;ratioP2;P2;SDS_P1;SDS_P2;PMS_P1;PMS_P2;Temp;Humidity;BMP_temperature;BMP_pressure;BME280_temperature;BME280_humidity;BME280_pressure;Samples;Min_cycle;Max_cycle;Signal;HPM_P1;HPM_P2
2021/03/01 00:01:27;;;;;;;6.43;3.67;;;;;;;16.80;39.11;103595.25;4177218;28;20124;-32
2021/03/01 00:03:28;;;;;;;5.22;2.85;;;;;;;16.84;38.90;103604.88;4185968;28;20038;-31
2021/03/01 00:05:29;;;;;;;4.55;2.70;;;;;;;16.85;39.15;103596.38;4177961;28;20037;-34
2021/03/01 00:07:30;;;;;;;4.32;2.60;;;;;;;16.78;39.25;103602.91;4179899;28;20100;-32
2021/03/01 00:09:34;;;;;;;5.53;3.10;;;;;;;16.77;38.94;103595.66;4184080;28;20098;-31
2021/03/01 00:11:37;;;;;;;7.50;3.22;;;;;;;16.72;38.89;103599.84;4179911;28;20037;-30
2021/03/01 00:13:38;;;;;;;7.38;3.88;;;;;;;16.82;39.05;103609.72;4177826;28;20135;-32
2021/03/01 00:15:39;;;;;;;5.95;3.08;;;;;;;16.78;38.90;103606.53;4185729;28;20025;-29
2021/03/01 00:17:40;;;;;;;5.00;3.95;;;;;;;16.68;39.13;103604.09;4181733;28;20040;-29
2021/03/01 00:19:40;;;;;;;5.95;3.33;;;;;;;16.69;39.17;103600.25;4184968;28;20033;-30
2021/03/01 00:21:40;;;;;;;6.25;3.80;;;;;;;16.70;38.93;103599.22;4160682;28;20503;-32
2021/03/01 00:23:41;;;;;;;6.25;3.72;;;;;;;16.68;39.17;103598.56;4182212;28;20031;-31
2021/03/01 00:25:41;;;;;;;4.53;3.60;;;;;;;16.58;39.23;103593.28;4189376;28;20056;-31
2021/03/01 00:27:42;;;;;;;3.47;3.17;;;;;;;16.62;38.68;103598.44;4183033;28;20081;-34
2021/03/01 00:29:42;;;;;;;7.97;2.92;;;;;;;16.63;38.66;103592.69;4178731;28;20025;-31
2021/03/01 00:31:43;;;;;;;4.72;3.65;;;;;;;16.59;39.12;103596.94;4176286;28;20033;-33
2021/03/01 00:33:43;;;;;;;4.80;4.40;;;;;;;16.56;38.49;103598.19;4178261;28;20028;-30
2021/03/01 00:35:43;;;;;;;8.20;6.03;;;;;;;16.52;38.63;103590.47;4187889;28;20036;-34
2021/03/01 00:37:44;;;;;;;4.60;3.92;;;;;;;16.50;38.95;103595.34;4180976;28;20062;-32
2021/03/01 00:39:44;;;;;;;5.47;3.45;;;;;;;16.52;38.82;103593.22;4174392;28;20037;-32
2021/03/01 00:41:45;;;;;;;5.20;3.30;;;;;;;16.55;38.27;103599.22;4183246;28;20040;-35
2021/03/01 00:43:45;;;;;;;6.38;2.95;;;;;;;16.58;38.88;103596.06;4179305;28;20037;-32
2021/03/01 00:45:45;;;;;;;4.28;3.00;;;;;;;16.51;38.60;103597.03;4172632;28;20487;-32
2021/03/01 00:47:46;;;;;;;4.47;3.97;;;;;;;16.44;38.39;103601.66;4176652;28;20086;-31
2021/03/01 00:49:46;;;;;;;4.93;2.70;;;;;;;16.45;38.43;103593.16;4179057;28;20037;-32
2021/03/01 00:51:47;;;;;;;5.35;3.25;;;;;;;16.40;38.55;103590.09;4174637;28;20032;-32
2021/03/01 00:53:47;;;;;;;3.08;2.80;;;;;;;16.49;38.54;103597.22;4179015;28;20029;-32
2021/03/01 00:55:48;;;;;;;5.88;2.83;;;;;;;16.38;38.42;103584.78;4183392;28;20033;-32
2021/03/01 00:57:48;;;;;;;3.03;2.83;;;;;;;16.38;38.42;103587.53;4173480;28;20033;-32
2021/03/01 00:59:48;;;;;;;4.60;2.70;;;;;;;16.23;38.58;103561.84;4175984;28;20033;-32
2021/03/01 01:01:49;;;;;;;6.45;2.90;;;;;;;16.44;38.18;103585.91;4183818;28;20037;-30
2021/03/01 01:03:49;;;;;;;3.22;2.33;;;;;;;16.44;38.29;103579.53;4175798;28;20025;-32
2021/03/01 01:05:49;;;;;;;3.58;2.80;;;;;;;16.33;38.45;103584.50;4179633;28;20032;-33
2021/03/01 01:07:50;;;;;;;6.22;3.75;;;;;;;16.33;38.35;103584.50;4189311;28;20033;-30
2021/03/01 01:09:50;;;;;;;6.97;2.47;;;;;;;16.35;38.34;103581.56;4177893;28;20058;-31
2021/03/01 01:11:51;;;;;;;2.20;2.00;;;;;;;16.32;38.34;103579.19;4180771;28;20051;-31
2021/03/01 01:13:51;;;;;;;5.03;2.75;;;;;;;16.28;38.18;103575.97;4179393;28;20033;-33
2021/03/01 01:15:51;;;;;;;3.08;1.98;;;;;;;16.26;38.53;103579.97;4177795;28;20039;-33
2021/03/01 01:17:52;;;;;;;3.20;2.30;;;;;;;16.15;38.56;103571.09;4181258;28;20052;-34
2021/03/01 01:19:52;;;;;;;4.05;2.90;;;;;;;16.13;38.53;103564.09;4178833;28;20028;-33
2021/03/01 01:21:52;;;;;;;2.65;2.45;;;;;;;16.20;38.42;103560.34;4176974;28;20364;-31
2021/03/01 01:23:53;;;;;;;3.20;2.42;;;;;;;16.18;38.49;103567.97;4183084;28;20035;-31
2021/03/01 01:25:53;;;;;;;3.38;3.17;;;;;;;16.20;37.99;103562.25;4179391;28;20044;-34
2021/03/01 01:27:54;;;;;;;3.72;3.42;;;;;;;16.11;38.13;103557.88;4178380;28;20036;-33
2021/03/01 01:29:54;;;;;;;3.63;2.90;;;;;;;16.10;38.08;103568.06;4177864;28;20102;-31
2021/03/01 01:31:55;;;;;;;3.38;3.17;;;;;;;16.17;37.81;103568.16;4178756;28;20036;-33
2021/03/01 01:33:55;;;;;;;4.38;4.05;;;;;;;16.16;38.04;103567.31;4177089;28;20033;-34
2021/03/01 01:35:56;;;;;;;4.25;4.05;;;;;;;16.14;38.15;103563.88;4178538;28;20036;-31
2021/03/01 01:37:56;;;;;;;3.53;3.22;;;;;;;16.15;38.16;103556.44;4181811;28;20032;-32
2021/03/01 01:39:56;;;;;;;3.85;3.55;;;;;;;16.13;37.99;103567.69;4175450;28;20025;-33
2021/03/01 01:41:57;;;;;;;3.50;2.80;;;;;;;16.08;38.23;103558.25;4175172;28;20052;-33
2021/03/01 01:43:57;;;;;;;2.80;2.60;;;;;;;16.09;38.02;103559.97;4185492;28;20565;-33
2021/03/01 01:45:58;;;;;;;3.25;3.05;;;;;;;16.11;38.25;103563.41;4184764;28;20021;-32
2021/03/01 01:47:58;;;;;;;4.43;2.53;;;;;;;16.11;37.92;103557.88;4175816;28;20025;-31
2021/03/01 01:49:59;;;;;;;3.92;3.05;;;;;;;16.12;37.93;103554.91;4180557;28;20021;-32
2021/03/01 01:51:59;;;;;;;2.50;2.35;;;;;;;16.08;37.89;103556.38;4177853;28;20048;-33
2021/03/01 01:54:00;;;;;;;3.05;2.75;;;;;;;16.06;37.89;103555.69;4180839;28;20090;-30
2021/03/01 01:56:01;;;;;;;2.60;2.40;;;;;;;16.07;37.65;103554.66;4179316;28;20021;-31
2021/03/01 01:58:02;;;;;;;3.20;2.90;;;;;;;15.92;38.30;103545.53;4177281;28;20064;-31
2021/03/01 02:00:11;;;;;;;3.47;3.03;;;;;;;15.94;37.73;103547.06;4177358;28;20021;-32
2021/03/01 02:02:23;;;;;;;2.63;2.42;;;;;;;16.00;37.70;103554.59;4175648;28;20033;-31
2021/03/01 02:04:52;;;;;;;4.57;4.25;;;;;;;15.99;37.59;103544.56;4175277;28;20021;-31
2021/03/01 02:07:06;;;;;;;4.38;4.07;;;;;;;15.88;37.88;103545.06;4175111;28;20090;-34
2021/03/01 02:09:27;;;;;;;4.65;4.20;;;;;;;15.91;37.85;103552.09;4177820;28;20479;-31
2021/03/01 02:11:33;;;;;;;5.22;4.78;;;;;;;15.98;37.76;103547.53;4176417;28;20472;-31
2021/03/01 02:13:42;;;;;;;3.38;3.17;;;;;;;15.85;37.62;103549.06;4181953;28;20017;-30
2021/03/01 02:16:03;;;;;;;4.25;3.70;;;;;;;15.90;37.33;103553.16;4176382;28;20037;-31
2021/03/01 02:18:03;;;;;;;3.70;3.35;;;;;;;15.90;37.60;103551.25;4161710;28;20467;-32
2021/03/01 02:20:08;;;;;;;3.17;2.53;;;;;;;15.92;37.41;103542.78;4176543;28;20052;-31
2021/03/01 02:22:08;;;;;;;3.58;3.28;;;;;;;15.84;37.80;103538.22;4177614;28;20078;-32
2021/03/01 02:24:11;;;;;;;3.78;3.47;;;;;;;15.89;37.29;103546.75;4177810;28;20041;-33
2021/03/01 02:26:23;;;;;;;3.05;2.85;;;;;;;15.84;37.77;103547.34;4173039;28;20084;-35
2021/03/01 02:28:28;;;;;;;3.72;3.50;;;;;;;15.83;37.51;103537.38;4177297;28;20033;-32
2021/03/01 02:32:41;;;;;;;3.42;3.22;;;;;;;15.76;37.75;103524.47;4941480;22;20016;-32
2021/03/01 02:34:42;;;;;;;2.80;2.60;;;;;;;15.74;37.47;103519.16;4146071;28;20452;-28
2021/03/01 02:36:47;;;;;;;4.00;3.70;;;;;;;15.77;37.50;103528.97;4143456;28;20144;-28
2021/03/01 02:38:51;;;;;;;3.70;3.45;;;;;;;15.82;37.34;103526.50;4144607;28;20476;-28
2021/03/01 02:40:54;;;;;;;3.30;3.08;;;;;;;15.73;37.65;103524.88;4140506;28;20037;-28
2021/03/01 02:42:57;;;;;;;3.42;3.22;;;;;;;15.77;37.57;103532.59;4141628;28;20029;-27
2021/03/01 02:44:58;;;;;;;5.97;5.53;;;;;;;15.71;37.67;103529.69;4143838;28;21226;-28
2021/03/01 02:46:59;;;;;;;4.60;4.00;;;;;;;15.67;37.53;103530.09;4143983;28;20041;-28
2021/03/01 02:49:00;;;;;;;4.88;4.57;;;;;;;15.71;37.53;103530.59;4144497;28;20121;-29
2021/03/01 02:51:01;;;;;;;4.32;4.13;;;;;;;15.72;37.77;103534.19;4143095;28;20108;-28
2021/03/01 02:53:03;;;;;;;5.45;5.03;;;;;;;15.77;37.56;103531.72;4143668;28;20038;-28
2021/03/01 02:55:04;;;;;;;4.40;4.05;;;;;;;15.62;37.97;103526.22;4142551;28;20030;-28
2021/03/01 02:57:06;;;;;;;3.90;3.63;;;;;;;15.59;37.86;103529.34;4143750;28;20038;-28
2021/03/01 02:59:09;;;;;;;3.97;3.67;;;;;;;15.64;37.60;103518.59;4142487;28;20022;-28
2021/03/01 03:01:10;;;;;;;4.13;3.83;;;;;;;15.64;37.60;103516.66;4144211;28;20030;-28
2021/03/01 03:03:12;;;;;;;3.40;3.13;;;;;;;15.62;37.46;103516.00;4142673;28;20687;-28
2021/03/01 03:05:13;;;;;;;3.92;3.63;;;;;;;15.62;37.60;103518.78;4142763;28;20060;-28
2021/03/01 03:07:14;;;;;;;3.45;3.00;;;;;;;15.55;37.68;103508.69;4143951;28;20470;-28
2021/03/01 03:09:15;;;;;;;4.82;4.53;;;;;;;15.60;37.59;103520.00;4142852;28;20053;-28
2021/03/01 03:11:20;;;;;;;4.25;4.00;;;;;;;15.58;37.57;103511.91;4140382;28;20045;-28
2021/03/01 03:13:21;;;;;;;3.97;3.78;;;;;;;15.60;37.58;103508.97;4143944;28;20038;-28
2021/03/01 03:15:23;;;;;;;3.42;3.22;;;;;;;15.59;37.75;103516.38;4141872;28;20069;-28
2021/03/01 03:17:25;;;;;;;4.47;3.22;;;;;;;15.54;37.43;103507.84;4135266;28;20045;-28
2021/03/01 03:19:26;;;;;;;4.35;3.92;;;;;;;15.60;37.46;103518.13;4143078;28;20499;-28
2021/03/01 03:21:27;;;;;;;4.80;4.30;;;;;;;15.50;37.66;103514.78;4144132;28;20384;-28
2021/03/01 03:23:27;;;;;;;5.50;5.20;;;;;;;15.46;37.63;103510.69;4141138;28;20030;-27
2021/03/01 03:25:28;;;;;;;5.50;5.10;;;;;;;15.46;37.77;103518.97;4143002;28;20030;-28
2021/03/01 03:27:28;;;;;;;5.13;4.82;;;;;;;15.52;37.59;103518.19;4143400;28;20029;-27
2021/03/01 03:29:29;;;;;;;3.20;2.92;;;;;;;15.46;37.57;103510.69;4142890;28;20030;-28
2021/03/01 03:31:30;;;;;;;4.65;4.38;;;;;;;15.51;37.51;103513.75;4143546;28;20072;-28
2021/03/01 03:33:30;;;;;;;3.30;3.10;;;;;;;15.39;37.48;103495.94;4131648;28;20046;-27
2021/03/01 03:35:31;;;;;;;3.78;3.58;;;;;;;15.44;37.41;103510.03;4118799;28;20053;-28
2021/03/01 03:37:36;;;;;;;6.13;5.70;;;;;;;15.43;37.77;103508.28;4127469;28;20025;-28
2021/03/01 03:39:43;;;;;;;4.97;4.68;;;;;;;15.38;37.61;103486.78;4127332;28;20065;-28
2021/03/01 03:41:47;;;;;;;4.35;4.05;;;;;;;15.46;37.35;103505.16;4126815;28;20481;-27
2021/03/01 03:43:48;;;;;;;4.90;4.50;;;;;;;15.43;37.57;103506.41;4125108;28;20023;-27
2021/03/01 03:45:53;;;;;;;5.30;4.90;;;;;;;15.42;37.57;103503.84;4124853;28;20460;-28
2021/03/01 03:47:57;;;;;;;6.22;5.72;;;;;;;15.37;37.49;103500.78;4126662;28;20026;-28
2021/03/01 03:49:59;;;;;;;5.80;5.40;;;;;;;15.41;37.47;103508.50;4126974;28;20042;-27
2021/03/01 03:52:01;;;;;;;3.67;3.45;;;;;;;15.37;37.80;103500.78;4126350;28;20145;-28
2021/03/01 03:54:15;;;;;;;4.07;3.88;;;;;;;15.35;37.82;103503.72;4127232;28;20030;-28
2021/03/01 03:56:22;;;;;;;5.95;5.55;;;;;;;15.38;37.68;103503.34;4124465;28;20038;-27
2021/03/01 03:58:27;;;;;;;5.47;5.07;;;;;;;15.26;37.67;103494.69;4126359;28;20473;-27
2021/03/01 04:00:29;;;;;;;5.10;4.70;;;;;;;15.31;37.63;103503.25;4126122;28;20431;-27
2021/03/01 04:02:32;;;;;;;6.38;3.67;;;;;;;15.35;37.40;103512.00;4126059;28;20042;-27
2021/03/01 04:04:33;;;;;;;3.45;3.20;;;;;;;15.36;37.28;103510.13;4124154;28;20037;-27
2021/03/01 04:06:40;;;;;;;4.00;3.70;;;;;;;15.27;37.56;103501.06;4125368;28;20023;-28
2021/03/01 04:08:42;;;;;;;3.85;3.55;;;;;;;15.31;37.56;103505.16;4127412;28;20464;-28
2021/03/01 04:10:45;;;;;;;4.68;4.35;;;;;;;15.25;37.62;103512.28;4122891;28;20038;-28
2021/03/01 04:12:48;;;;;;;3.65;3.45;;;;;;;15.29;37.52;103516.41;4127682;28;20522;-28
2021/03/01 04:14:50;;;;;;;5.50;5.10;;;;;;;15.26;37.80;103516.78;4126630;28;20054;-27
2021/03/01 04:16:56;;;;;;;3.40;3.20;;;;;;;15.24;37.56;103513.31;4122415;28;20039;-28
2021/03/01 04:19:01;;;;;;;5.03;4.68;;;;;;;15.25;37.62;103515.06;4126315;28;20030;-28
2021/03/01 04:21:05;;;;;;;5.13;4.28;;;;;;;15.23;37.86;103513.53;4124480;28;20093;-28
2021/03/01 04:23:08;;;;;;;5.30;5.00;;;;;;;15.23;37.58;103513.53;4125218;28;20755;-28
2021/03/01 04:25:09;;;;;;;4.30;3.90;;;;;;;15.16;37.92;103518.09;4129716;28;20476;-28
2021/03/01 04:27:10;;;;;;;5.80;4.53;;;;;;;15.17;37.73;103522.53;4128305;28;20038;-28
2021/03/01 04:29:12;;;;;;;6.05;5.65;;;;;;;15.13;37.68;103514.66;4126658;28;20042;-28
2021/03/01 04:31:14;;;;;;;5.55;5.03;;;;;;;15.21;37.54;103516.47;4125596;28;20038;-28
2021/03/01 04:33:16;;;;;;;5.82;5.43;;;;;;;15.09;37.87;103499.53;4123706;28;20070;-27
2021/03/01 04:35:19;;;;;;;5.47;5.07;;;;;;;15.07;37.61;103496.09;4126845;28;20039;-28
2021/03/01 04:37:19;;;;;;;5.78;5.30;;;;;;;15.12;38.09;103509.31;4126248;28;20041;-29
2021/03/01 04:39:20;;;;;;;5.03;4.60;;;;;;;15.13;37.56;103506.38;4126668;28;20030;-29
2021/03/01 04:41:22;;;;;;;4.78;4.32;;;;;;;15.08;37.63;103508.00;4126930;28;20076;-29
2021/03/01 04:43:25;;;;;;;4.35;3.58;;;;;;;15.11;37.68;103507.63;4125436;28;20042;-28
2021/03/01 04:45:26;;;;;;;4.88;4.38;;;;;;;15.08;37.54;103500.56;4126466;28;20022;-28
2021/03/01 04:47:27;;;;;;;4.85;4.45;;;;;;;15.07;37.84;103503.53;4125400;28;20383;-28
2021/03/01 04:49:28;;;;;;;5.45;3.97;;;;;;;15.09;37.83;103504.19;4125191;28;20037;-28
2021/03/01 04:51:29;;;;;;;3.45;3.15;;;;;;;15.06;37.82;103496.28;4126038;28;20518;-28
2021/03/01 04:53:31;;;;;;;4.80;4.40;;;;;;;15.10;37.41;103501.22;4127082;28;20027;-27
2021/03/01 04:55:32;;;;;;;5.10;4.47;;;;;;;15.11;37.67;103507.63;4126690;28;20073;-27
2021/03/01 04:57:33;;;;;;;4.10;3.78;;;;;;;15.07;37.57;103501.59;4118961;28;20042;-29
2021/03/01 04:59:34;;;;;;;4.68;4.28;;;;;;;15.02;37.70;103494.97;4127438;28;20113;-28
2021/03/01 05:01:36;;;;;;;4.72;4.32;;;;;;;15.03;37.98;103500.28;4128185;28;20578;-27
2021/03/01 05:03:38;;;;;;;5.05;4.65;;;;;;;15.02;37.71;103504.09;4123495;28;20031;-29
2021/03/01 05:05:41;;;;;;;4.53;4.13;;;;;;;14.96;37.87;103504.84;4127262;28;20036;-28
2021/03/01 05:07:44;;;;;;;5.32;4.80;;;;;;;15.01;37.78;103507.03;4128518;28;20396;-28
2021/03/01 05:09:45;;;;;;;4.50;3.80;;;;;;;14.97;37.71;103487.25;4128496;28;20823;-27
2021/03/01 05:11:46;;;;;;;4.72;4.43;;;;;;;14.97;37.89;103495.53;4128428;28;20042;-28
2021/03/01 05:13:46;;;;;;;5.80;5.40;;;;;;;15.01;37.88;103494.09;4129421;28;20045;-28
2021/03/01 05:15:46;;;;;;;5.07;4.60;;;;;;;14.98;37.70;103508.25;4127662;28;20621;-28
2021/03/01 05:17:47;;;;;;;4.05;3.72;;;;;;;15.01;37.84;103494.09;4128453;28;20056;-28
2021/03/01 05:19:47;;;;;;;5.57;5.07;;;;;;;14.96;37.93;103504.84;4128019;28;20030;-28
2021/03/01 05:21:48;;;;;;;5.60;5.10;;;;;;;14.96;37.75;103499.31;4126210;28;20038;-27
2021/03/01 05:23:48;;;;;;;5.47;4.97;;;;;;;14.95;38.00;103504.00;4130307;28;20030;-28
2021/03/01 05:25:49;;;;;;;5.45;4.95;;;;;;;14.95;38.00;103509.50;4130943;28;20037;-28
2021/03/01 05:27:50;;;;;;;4.55;4.18;;;;;;;14.96;37.90;103504.84;4128999;28;20035;-27
2021/03/01 05:29:50;;;;;;;6.13;5.63;;;;;;;14.96;37.48;103505.69;4129743;28;20026;-29
2021/03/01 05:31:50;;;;;;;4.85;3.65;;;;;;;15.00;37.78;103506.19;4129362;28;21064;-29
2021/03/01 05:33:51;;;;;;;5.78;5.22;;;;;;;14.91;37.71;103502.63;4129259;28;20140;-28
2021/03/01 05:35:51;;;;;;;4.57;4.28;;;;;;;14.86;37.77;103504.22;4127127;28;20044;-28
2021/03/01 05:37:52;;;;;;;5.00;4.20;;;;;;;14.96;37.60;103499.31;4128735;28;20121;-30
2021/03/01 05:39:52;;;;;;;5.40;4.90;;;;;;;14.89;38.15;103499.22;4129027;28;20026;-28
2021/03/01 05:41:53;;;;;;;5.57;5.07;;;;;;;14.92;37.89;103507.13;4130225;28;20384;-30
2021/03/01 05:43:54;;;;;;;5.32;4.82;;;;;;;14.87;37.72;103501.28;4127842;28;20026;-28
2021/03/01 05:45:57;;;;;;;4.97;4.57;;;;;;;14.88;37.62;103508.53;4111387;28;20181;-28
2021/03/01 05:47:58;;;;;;;4.72;3.53;;;;;;;14.92;37.61;103503.47;4127545;28;20662;-28
2021/03/01 05:49:59;;;;;;;5.43;5.03;;;;;;;14.86;37.67;103504.22;4128648;28;20041;-28
2021/03/01 05:52:01;;;;;;;4.60;4.20;;;;;;;14.85;37.72;103500.63;4123602;28;20026;-28
2021/03/01 05:54:02;;;;;;;6.20;5.70;;;;;;;14.85;37.63;103506.13;4126834;28;20042;-28
2021/03/01 05:56:04;;;;;;;5.07;4.70;;;;;;;14.89;37.60;103501.97;4127942;28;20034;-29
2021/03/01 05:58:07;;;;;;;5.32;4.93;;;;;;;14.87;37.73;103500.44;4129849;28;20042;-28
2021/03/01 06:00:08;;;;;;;5.70;5.30;;;;;;;14.88;37.57;103491.13;4127317;28;20034;-28
2021/03/01 06:02:09;;;;;;;5.72;5.22;;;;;;;14.93;37.33;103489.50;4128398;28;20089;-28
2021/03/01 06:04:10;;;;;;;5.18;4.70;;;;;;;14.89;37.64;103490.94;4128917;28;20034;-28
2021/03/01 06:06:13;;;;;;;6.60;6.00;;;;;;;14.87;37.46;103500.44;4128106;28;20034;-28
2021/03/01 06:08:15;;;;;;;5.55;5.13;;;;;;;14.89;37.28;103496.47;4126284;28;20038;-28
2021/03/01 06:10:15;;;;;;;6.47;5.97;;;;;;;14.87;37.58;103490.25;4127196;28;20038;-28
2021/03/01 06:12:16;;;;;;;5.47;4.97;;;;;;;14.78;37.92;103483.06;4123869;28;20022;-28
2021/03/01 06:14:17;;;;;;;6.00;5.03;;;;;;;14.86;37.59;103485.81;4129155;28;20165;-27
2021/03/01 06:16:17;;;;;;;4.72;4.32;;;;;;;14.89;37.34;103501.97;4129517;28;20370;-28
2021/03/01 06:18:18;;;;;;;6.88;5.65;;;;;;;14.78;37.53;103481.19;4128634;28;20041;-29
2021/03/01 06:20:21;;;;;;;5.97;5.47;;;;;;;14.81;37.46;103479.94;4127557;28;20042;-28
2021/03/01 06:22:24;;;;;;;5.50;5.00;;;;;;;14.86;37.52;103501.47;4127747;28;20499;-28
2021/03/01 06:24:24;;;;;;;6.90;6.30;;;;;;;14.84;37.42;103489.75;4129960;28;20085;-28
2021/03/01 06:26:31;;;;;;;6.15;5.75;;;;;;;14.83;37.58;103497.19;4127859;28;20039;-27
2021/03/01 06:28:32;;;;;;;6.47;5.80;;;;;;;14.88;37.38;103491.97;4127680;28;20034;-28
2021/03/01 06:30:39;;;;;;;4.75;4.38;;;;;;;14.91;37.20;103501.78;4128479;28;20038;-28
2021/03/01 06:32:39;;;;;;;6.07;5.57;;;;;;;14.88;37.41;103497.50;4128714;28;20038;-29
2021/03/01 06:34:40;;;;;;;6.82;6.32;;;;;;;14.89;37.51;103499.22;4127844;28;20146;-29
2021/03/01 06:37:01;;;;;;;7.13;6.63;;;;;;;14.88;37.56;103503.00;4128448;28;20041;-29
2021/03/01 06:39:02;;;;;;;5.82;5.43;;;;;;;14.84;37.76;103504.38;4126372;28;20054;-29
2021/03/01 06:41:15;;;;;;;6.88;6.38;;;;;;;14.86;37.25;103509.75;4126479;28;20026;-31
2021/03/01 06:43:16;;;;;;;5.68;4.85;;;;;;;14.83;37.41;103505.44;4128642;28;20030;-28
2021/03/01 06:45:16;;;;;;;8.00;7.30;;;;;;;14.87;37.53;103506.81;4128160;28;20701;-28
2021/03/01 06:47:17;;;;;;;6.35;5.82;;;;;;;14.86;37.43;103504.22;4128114;28;20037;-28
2021/03/01 06:49:19;;;;;;;7.20;6.65;;;;;;;14.88;37.33;103507.69;4127589;28;20038;-28
2021/03/01 06:51:19;;;;;;;5.50;5.10;;;;;;;14.84;37.42;103500.78;4127963;28;20404;-32
2021/03/01 06:53:20;;;;;;;6.15;5.65;;;;;;;14.84;37.44;103507.13;4126461;28;20038;-28
2021/03/01 06:55:20;;;;;;;5.68;4.97;;;;;;;14.87;37.57;103504.03;4126891;28;20029;-28
2021/03/01 06:57:27;;;;;;;6.15;5.75;;;;;;;14.88;37.24;103503.00;4125240;28;20447;-28
2021/03/01 06:59:28;;;;;;;6.82;6.25;;;;;;;14.91;37.17;103499.03;4126724;28;20023;-28
2021/03/01 07:01:28;;;;;;;7.00;6.53;;;;;;;14.88;37.51;103504.91;4127235;28;20104;-28
2021/03/01 07:03:29;;;;;;;7.85;7.15;;;;;;;14.90;37.29;103500.91;4126829;28;20034;-27
2021/03/01 07:05:48;;;;;;;7.18;6.68;;;;;;;14.84;37.45;103504.38;4127315;28;20018;-27
2021/03/01 07:07:49;;;;;;;7.95;7.35;;;;;;;14.91;37.33;103502.63;4128694;28;20445;-28
2021/03/01 07:09:54;;;;;;;8.32;7.72;;;;;;;14.87;37.21;103503.19;4127957;28;20035;-28
2021/03/01 07:11:56;;;;;;;6.40;5.90;;;;;;;14.89;37.39;103503.84;4127463;28;20037;-28
2021/03/01 07:14:05;;;;;;;8.90;8.15;;;;;;;14.84;37.20;103504.38;4127552;28;20484;-28
2021/03/01 07:16:06;;;;;;;6.38;5.88;;;;;;;14.87;37.64;103503.19;4127214;28;20041;-27
2021/03/01 07:18:07;;;;;;;6.60;6.00;;;;;;;14.91;37.37;103501.78;4108784;28;20038;-28
2021/03/01 07:20:09;;;;;;;8.07;7.43;;;;;;;14.90;37.33;103500.91;4126072;28;20065;-27
2021/03/01 07:22:13;;;;;;;7.78;6.88;;;;;;;14.91;37.03;103512.81;4129485;28;20030;-27
2021/03/01 07:24:18;;;;;;;7.35;6.68;;;;;;;14.90;37.17;103509.19;4126050;28;20500;-28
2021/03/01 07:26:23;;;;;;;7.18;6.55;;;;;;;14.89;37.04;103510.25;4126198;28;20117;-28
2021/03/01 07:28:24;;;;;;;7.55;6.80;;;;;;;14.85;37.06;103514.41;4126098;28;20030;-28
2021/03/01 07:30:26;;;;;;;9.40;8.05;;;;;;;14.90;37.34;103505.56;4127483;28;20034;-29
2021/03/01 07:32:27;;;;;;;9.20;8.43;;;;;;;14.89;37.17;103510.25;4126220;28;20570;-28
2021/03/01 07:34:29;;;;;;;7.00;6.40;;;;;;;14.86;36.87;103509.75;4123002;28;20035;-28
2021/03/01 07:36:31;;;;;;;6.93;6.28;;;;;;;14.66;37.43;103470.78;4126165;28;20370;-28
2021/03/01 07:38:32;;;;;;;8.43;7.72;;;;;;;14.85;37.34;103505.28;4127306;28;20092;-29
2021/03/01 07:40:33;;;;;;;8.85;8.23;;;;;;;14.91;37.22;103512.81;4127247;28;20045;-29
2021/03/01 07:42:38;;;;;;;7.38;6.80;;;;;;;14.90;37.41;103513.84;4126201;28;20670;-29
2021/03/01 07:44:39;;;;;;;8.38;7.55;;;;;;;14.93;37.90;103514.31;4125231;28;20053;-29
2021/03/01 07:46:42;;;;;;;8.38;6.57;;;;;;;14.96;37.72;103510.34;4124290;28;20078;-29
2021/03/01 07:48:43;;;;;;;17.15;7.55;;;;;;;15.01;38.21;103521.66;4124889;28;20038;-27
2021/03/01 07:50:47;;;;;;;9.23;7.53;;;;;;;15.01;38.39;103518.06;4126800;28;20058;-28
2021/03/01 07:52:47;;;;;;;9.57;8.13;;;;;;;14.93;38.31;103511.56;4125302;28;20038;-27
2021/03/01 07:55:05;;;;;;;7.30;6.32;;;;;;;14.95;38.73;103520.53;4125205;28;20037;-27
2021/03/01 07:57:07;;;;;;;8.10;7.07;;;;;;;14.96;38.40;103516.72;4124849;28;20468;-29
2021/03/01 07:59:10;;;;;;;9.65;8.13;;;;;;;15.00;38.34;103517.22;4125455;28;20033;-28
2021/03/01 08:01:14;;;;;;;8.07;7.45;;;;;;;14.99;38.43;103525.69;4125693;28;20077;-27
2021/03/01 08:03:35;;;;;;;10.88;7.53;;;;;;;14.98;37.83;103515.69;4126096;28;20145;-27
2021/03/01 08:05:36;;;;;;;12.18;7.38;;;;;;;15.01;38.55;103523.59;4125631;28;20041;-27
2021/03/01 08:07:40;;;;;;;14.82;6.10;;;;;;;14.98;38.50;103529.47;4125840;28;20485;-28
2021/03/01 08:09:49;;;;;;;8.13;5.90;;;;;;;15.01;37.91;103531.84;4132222;28;20049;-27
2021/03/01 08:11:50;;;;;;;7.72;5.30;;;;;;;15.02;38.31;103537.19;4124460;28;20754;-27
2021/03/01 08:13:50;;;;;;;7.78;5.22;;;;;;;15.05;38.36;103533.19;4126172;28;20027;-28
2021/03/01 08:15:51;;;;;;;6.55;4.93;;;;;;;15.08;38.57;103539.19;4126018;28;20408;-27
2021/03/01 08:17:52;;;;;;;5.82;5.20;;;;;;;15.11;37.78;103538.81;4124779;28;20058;-28
2021/03/01 08:19:53;;;;;;;6.95;6.32;;;;;;;15.04;38.34;103542.50;4127990;28;20483;-28
2021/03/01 08:22:05;;;;;;;7.30;6.65;;;;;;;15.03;38.01;103544.44;4132373;28;20022;-27
2021/03/01 08:24:43;;;;;;;6.55;5.85;;;;;;;15.03;38.34;103544.44;4125076;28;20597;-28
2021/03/01 08:26:44;;;;;;;7.22;6.53;;;;;;;15.01;38.32;103540.97;4127886;28;21515;-28
2021/03/01 08:28:45;;;;;;;7.25;6.57;;;;;;;15.05;37.97;103541.47;4125748;28;20045;-27
2021/03/01 08:30:53;;;;;;;7.88;7.22;;;;;;;15.03;38.00;103538.91;4122276;28;20030;-27
2021/03/01 08:33:09;;;;;;;7.07;5.53;;;;;;;15.02;37.92;103541.84;4128888;28;20030;-28
2021/03/01 08:35:24;;;;;;;13.90;6.20;;;;;;;15.00;38.44;103538.41;4123548;28;20043;-26
2021/03/01 08:37:44;;;;;;;27.45;6.25;;;;;;;15.03;38.35;103532.50;4128340;28;20117;-27
2021/03/01 08:39:57;;;;;;;;;;;;;;;15.08;38.57;103536.44;4128634;28;20384;-26
2021/03/01 08:41:58;;;;;;;13.80;5.88;;;;;;;15.14;38.73;103543.13;4126737;28;19922;-27
2021/03/01 08:44:00;;;;;;;16.83;7.65;;;;;;;15.19;38.20;103537.88;4108783;28;20022;-27
2021/03/01 08:46:00;;;;;;;11.48;6.20;;;;;;;15.14;38.08;103532.09;4130899;28;20064;-28
2021/03/01 08:48:02;;;;;;;10.45;5.50;;;;;;;15.20;38.42;103539.59;4128957;28;20429;-27
2021/03/01 08:50:04;;;;;;;19.38;8.43;;;;;;;15.20;38.62;103545.13;4127711;28;20047;-29
2021/03/01 08:52:06;;;;;;;12.80;8.05;;;;;;;15.22;38.25;103531.97;4129884;28;20034;-29
2021/03/01 08:54:09;;;;;;;13.35;5.30;;;;;;;15.25;38.24;103530.75;4129173;28;20080;-29
2021/03/01 08:56:20;;;;;;;7.28;4.80;;;;;;;15.23;38.10;103533.72;4128920;28;20019;-28
2021/03/01 08:58:22;;;;;;;8.82;6.38;;;;;;;15.22;38.20;103537.50;4128471;28;20050;-29
2021/03/01 09:00:23;;;;;;;23.60;6.07;;;;;;;15.16;38.29;103534.66;4129029;28;20061;-29
2021/03/01 09:02:24;;;;;;;9.98;6.00;;;;;;;15.19;38.79;103531.53;4129303;28;20034;-28
2021/03/01 09:04:24;;;;;;;16.85;5.95;;;;;;;15.23;38.37;103527.31;4128885;28;20578;-29
2021/03/01 09:06:24;;;;;;;7.13;6.40;;;;;;;15.33;38.15;103522.38;4131177;28;20026;-28
2021/03/01 09:08:28;;;;;;;10.70;5.72;;;;;;;15.56;37.44;103536.09;4127374;28;20022;-29
2021/03/01 09:10:36;;;;;;;5.53;4.80;;;;;;;15.58;37.65;103531.22;4129935;28;20030;-29
2021/03/01 09:12:37;;;;;;;9.32;6.53;;;;;;;15.60;37.47;103529.16;4127782;28;20392;-28
2021/03/01 09:14:37;;;;;;;8.50;5.45;;;;;;;15.59;37.75;103537.63;4127077;28;20125;-28
2021/03/01 09:16:42;;;;;;;8.02;4.95;;;;;;;15.55;38.06;103526.09;4129455;28;20388;-29
2021/03/01 09:18:44;;;;;;;7.32;5.53;;;;;;;15.54;37.86;103527.16;4128611;28;20069;-32
2021/03/01 09:20:55;;;;;;;18.48;4.82;;;;;;;15.46;38.16;103532.75;4112816;28;20035;-28
2021/03/01 09:22:55;;;;;;;8.57;5.07;;;;;;;15.51;38.40;103527.53;4131294;28;20078;-28
2021/03/01 09:24:55;;;;;;;7.60;5.25;;;;;;;15.52;38.27;103526.47;4128473;28;20544;-28
2021/03/01 09:26:56;;;;;;;6.68;3.85;;;;;;;15.59;38.43;103521.06;4129019;28;20034;-28
2021/03/01 09:28:59;;;;;;;4.30;3.80;;;;;;;15.66;37.69;103520.13;4128804;28;20035;-29
2021/03/01 09:31:11;;;;;;;9.55;3.85;;;;;;;15.84;37.22;103513.34;4129132;28;20492;-28
2021/03/01 09:33:11;;;;;;;7.18;3.70;;;;;;;15.89;37.16;103510.84;4129049;28;20034;-28